createdAt,value
2023-03-21T00:02:10.582Z,9.40
2023-03-21T00:04:51.309Z,9.40
2023-03-21T00:07:24.924Z,9.30
2023-03-21T00:10:08.666Z,9.30
2023-03-21T00:12:50.173Z,9.30
2023-03-21T00:15:30.685Z,9.30
2023-03-21T00:18:11.160Z,9.30
2023-03-21T00:20:47.468Z,9.30
2023-03-21T00:23:20.236Z,9.30
2023-03-21T00:25:53.358Z,9.20
2023-03-21T00:28:26.953Z,9.10
2023-03-21T00:31:00.280Z,9.10
2023-03-21T00:33:34.468Z,9.10
2023-03-21T00:36:09.274Z,9.10
2023-03-21T00:38:42.583Z,9.10
2023-03-21T00:41:25.886Z,9.20
2023-03-21T00:44:07.735Z,9.20
2023-03-21T00:46:49.073Z,9.20
2023-03-21T00:49:27.580Z,9.20
2023-03-21T00:52:14.753Z,9.20
2023-03-21T00:54:48.911Z,9.20
2023-03-21T00:57:29.353Z,9.10
2023-03-21T01:00:12.401Z,9.10
2023-03-21T01:03:04.354Z,9.10
2023-03-21T01:05:58.814Z,9.10
2023-03-21T01:08:52.284Z,9.10
2023-03-21T01:11:28.301Z,9.10
2023-03-21T01:14:18.668Z,9.10
2023-03-21T01:16:54.297Z,9.10
2023-03-21T01:19:40.656Z,9.10
2023-03-21T01:22:17.311Z,9.10
2023-03-21T01:24:55.507Z,9.10
2023-03-21T01:27:33.294Z,9.10
2023-03-21T01:30:17.360Z,9.10
2023-03-21T01:32:52.148Z,9.10
2023-03-21T01:35:25.794Z,9.10
2023-03-21T01:37:58.624Z,9.00
2023-03-21T01:40:31.402Z,9.00
2023-03-21T01:43:28.061Z,9.00
2023-03-21T01:46:51.773Z,9.10
2023-03-21T01:49:52.838Z,9.00
2023-03-21T01:52:37.494Z,9.00
2023-03-21T01:55:15.803Z,9.00
2023-03-21T01:58:05.892Z,9.00
2023-03-21T02:01:00.498Z,8.90
2023-03-21T02:03:49.995Z,8.90
2023-03-21T02:06:53.502Z,8.90
2023-03-21T02:09:50.094Z,8.90
2023-03-21T02:12:27.290Z,9.00
2023-03-21T02:15:00.554Z,9.00
2023-03-21T02:18:28.016Z,9.00
2023-03-21T02:21:35.795Z,9.00
2023-03-21T02:24:27.581Z,9.00
2023-03-21T02:27:12.679Z,9.00
2023-03-21T02:29:58.150Z,9.00
2023-03-21T02:32:58.576Z,9.00
2023-03-21T02:36:05.667Z,9.00
2023-03-21T02:39:24.410Z,9.00
2023-03-21T02:42:16.589Z,9.10
2023-03-21T02:45:17.469Z,9.10
2023-03-21T02:48:23.596Z,9.10
2023-03-21T02:51:00.172Z,9.00
2023-03-21T02:53:38.110Z,9.10
2023-03-21T02:56:13.280Z,9.10
2023-03-21T02:58:50.981Z,9.10
2023-03-21T03:01:25.834Z,9.10
2023-03-21T03:03:59.206Z,9.10
2023-03-21T03:07:03.160Z,9.10
2023-03-21T03:09:54.180Z,9.10
2023-03-21T03:12:29.642Z,9.10
2023-03-21T03:15:12.742Z,9.10
2023-03-21T03:18:00.365Z,9.10
2023-03-21T03:20:55.110Z,9.10
2023-03-21T03:23:57.691Z,9.10
2023-03-21T03:26:43.403Z,9.00
2023-03-21T03:29:19.186Z,9.00
2023-03-21T03:32:01.821Z,9.00
2023-03-21T03:34:43.059Z,9.00
2023-03-21T03:37:22.071Z,9.00
2023-03-21T03:40:08.126Z,8.90
2023-03-21T03:42:53.748Z,8.90
2023-03-21T03:45:44.404Z,8.90
2023-03-21T03:48:32.447Z,8.90
2023-03-21T03:51:29.983Z,8.90
2023-03-21T03:54:17.484Z,8.90
2023-03-21T03:56:50.697Z,8.90
2023-03-21T03:59:24.940Z,8.90
2023-03-21T04:02:06.855Z,8.90
2023-03-21T04:04:42.080Z,8.90
2023-03-21T04:07:15.279Z,8.90
2023-03-21T04:09:48.731Z,8.90
2023-03-21T04:12:25.486Z,8.90
2023-03-21T04:15:11.501Z,8.90
2023-03-21T04:17:48.728Z,8.90
2023-03-21T04:20:34.178Z,8.90
2023-03-21T04:23:14.392Z,8.90
2023-03-21T04:25:56.818Z,8.90
2023-03-21T04:28:41.495Z,8.80
2023-03-21T04:31:33.872Z,8.90
2023-03-21T04:34:15.262Z,8.90
2023-03-21T04:36:54.042Z,8.90
2023-03-21T04:39:27.057Z,8.80
2023-03-21T04:42:00.173Z,8.80
2023-03-21T04:44:33.748Z,8.80
2023-03-21T04:47:07.096Z,8.80
2023-03-21T04:49:40.078Z,8.80
2023-03-21T04:52:12.815Z,8.80
2023-03-21T04:54:46.160Z,8.80
2023-03-21T04:57:19.280Z,8.70
2023-03-21T04:59:52.068Z,8.70
2023-03-21T05:02:25.560Z,8.60
2023-03-21T05:04:58.318Z,8.60
2023-03-21T05:07:32.788Z,8.50
2023-03-21T05:10:07.268Z,8.50
2023-03-21T05:12:41.325Z,8.50
2023-03-21T05:15:14.131Z,8.40
2023-03-21T05:17:48.617Z,8.50
2023-03-21T05:20:21.660Z,8.50
2023-03-21T05:22:54.766Z,8.40
2023-03-21T05:25:34.621Z,8.40
2023-03-21T05:28:19.226Z,8.40
2023-03-21T05:30:52.089Z,8.40
2023-03-21T05:33:25.235Z,8.40
2023-03-21T05:35:58.640Z,8.40
2023-03-21T05:38:35.304Z,8.40
2023-03-21T05:41:08.348Z,8.50
2023-03-21T05:43:41.895Z,8.50
2023-03-21T05:46:15.377Z,8.50
2023-03-21T05:48:48.242Z,8.50
2023-03-21T05:51:23.317Z,8.40
2023-03-21T05:53:56.697Z,8.40
2023-03-21T05:56:29.356Z,8.40
2023-03-21T05:59:07.236Z,8.40
2023-03-21T06:01:45.895Z,8.40
2023-03-21T06:04:21.725Z,8.40
2023-03-21T06:06:54.876Z,8.40
2023-03-21T06:09:28.805Z,8.40
2023-03-21T06:12:05.258Z,8.50
2023-03-21T06:14:59.461Z,8.50
2023-03-21T06:17:37.725Z,8.50
2023-03-21T06:20:14.808Z,8.50
2023-03-21T06:22:52.726Z,8.50
2023-03-21T06:25:25.583Z,8.50
2023-03-21T06:27:58.646Z,8.50
2023-03-21T06:30:31.635Z,8.50
2023-03-21T06:33:21.305Z,8.50
2023-03-21T06:35:55.796Z,8.50
2023-03-21T06:38:29.028Z,8.50
2023-03-21T06:41:04.595Z,8.40
2023-03-21T06:43:42.064Z,8.40
2023-03-21T06:46:15.392Z,8.40
2023-03-21T06:48:48.955Z,8.40
2023-03-21T06:51:21.797Z,8.50
2023-03-21T06:54:06.742Z,8.50
2023-03-21T06:56:57.587Z,8.50
2023-03-21T06:59:35.870Z,8.50
2023-03-21T07:02:12.534Z,8.50
2023-03-21T07:04:51.388Z,8.60
2023-03-21T07:07:29.645Z,8.60
2023-03-21T07:10:03.666Z,8.60
2023-03-21T07:12:42.101Z,8.60
2023-03-21T07:15:22.496Z,8.70
2023-03-21T07:17:56.869Z,8.70
2023-03-21T07:20:29.696Z,8.70
2023-03-21T07:23:02.482Z,8.70
2023-03-21T07:25:35.814Z,8.80
2023-03-21T07:28:09.212Z,8.80
2023-03-21T07:30:42.573Z,8.80
2023-03-21T07:33:15.386Z,8.80
2023-03-21T07:35:48.142Z,8.80
2023-03-21T07:38:21.350Z,8.80
2023-03-21T07:40:54.473Z,8.80
2023-03-21T07:43:28.061Z,8.90
2023-03-21T07:46:00.965Z,8.80
2023-03-21T07:48:33.910Z,8.80
2023-03-21T07:51:07.270Z,8.80
2023-03-21T07:53:41.909Z,8.80
2023-03-21T07:56:15.902Z,8.80
2023-03-21T07:58:48.766Z,8.70
2023-03-21T08:01:22.021Z,8.70
2023-03-21T08:03:54.811Z,8.80
2023-03-21T08:06:28.558Z,8.80
2023-03-21T08:09:02.957Z,8.90
2023-03-21T08:11:35.738Z,8.90
2023-03-21T08:14:08.551Z,9.00
2023-03-21T08:16:41.361Z,9.00
2023-03-21T08:19:14.328Z,9.00
2023-03-21T08:21:47.940Z,9.10
2023-03-21T08:24:20.957Z,9.10
2023-03-21T08:26:53.688Z,9.00
2023-03-21T08:29:27.055Z,9.00
2023-03-21T08:31:59.700Z,9.00
2023-03-21T08:34:32.665Z,9.10
2023-03-21T08:37:05.390Z,9.10
2023-03-21T08:39:38.891Z,9.20
2023-03-21T08:42:11.740Z,9.20
2023-03-21T08:44:44.480Z,9.30
2023-03-21T08:47:17.285Z,9.30
2023-03-21T08:49:49.984Z,9.40
2023-03-21T08:52:22.839Z,9.50
2023-03-21T08:54:56.090Z,9.60
2023-03-21T08:57:29.498Z,9.60
2023-03-21T09:00:07.231Z,9.60
2023-03-21T09:02:45.289Z,9.60
2023-03-21T09:05:18.418Z,9.60
2023-03-21T09:07:52.759Z,9.60
2023-03-21T09:10:25.518Z,9.50
2023-03-21T09:13:27.109Z,9.50
2023-03-21T09:16:05.362Z,9.50
2023-03-21T09:18:48.457Z,9.60
2023-03-21T09:21:44.175Z,9.60
2023-03-21T09:24:24.229Z,9.60
2023-03-21T09:27:02.042Z,9.70
2023-03-21T09:29:39.514Z,9.70
2023-03-21T09:32:14.196Z,9.70
2023-03-21T09:34:48.424Z,9.80
2023-03-21T09:37:21.278Z,9.80
2023-03-21T09:39:58.165Z,9.80
2023-03-21T09:43:16.257Z,9.80
2023-03-21T09:46:00.419Z,9.90
2023-03-21T09:48:57.534Z,9.90
2023-03-21T09:51:40.588Z,9.80
2023-03-21T09:54:30.027Z,9.80
2023-03-21T09:57:32.018Z,9.80
2023-03-21T10:00:21.666Z,9.70
2023-03-21T10:03:08.767Z,9.70
2023-03-21T10:05:48.992Z,9.60
2023-03-21T10:08:27.435Z,9.70
2023-03-21T10:11:13.073Z,9.70
2023-03-21T10:14:15.866Z,9.70
2023-03-21T10:16:57.746Z,9.70
2023-03-21T10:19:32.513Z,9.70
2023-03-21T10:22:06.381Z,9.70
2023-03-21T10:24:42.818Z,9.70
2023-03-21T10:27:21.339Z,9.80
2023-03-21T10:29:57.388Z,9.80
2023-03-21T10:32:32.671Z,9.80
2023-03-21T10:35:10.734Z,9.70
2023-03-21T10:37:43.580Z,9.70
2023-03-21T10:40:17.715Z,9.80
2023-03-21T10:42:50.669Z,9.80
2023-03-21T10:45:24.300Z,9.80
2023-03-21T10:47:58.197Z,9.80
2023-03-21T10:50:31.918Z,9.80
2023-03-21T10:53:16.142Z,9.90
2023-03-21T10:55:54.112Z,9.90
2023-03-21T10:58:35.017Z,9.90
2023-03-21T11:01:14.634Z,9.90
2023-03-21T11:03:48.172Z,10.00
2023-03-21T11:06:32.199Z,10.00
2023-03-21T11:09:42.696Z,10.00
2023-03-21T11:12:38.667Z,10.10
2023-03-21T11:15:38.098Z,10.10
2023-03-21T11:18:18.938Z,10.10
2023-03-21T11:20:58.310Z,10.10
2023-03-21T11:23:35.281Z,10.20
2023-03-21T11:26:19.031Z,10.20
2023-03-21T11:28:52.686Z,10.30
2023-03-21T11:31:41.096Z,10.30
2023-03-21T11:34:48.879Z,10.30
2023-03-21T11:37:28.532Z,10.40
2023-03-21T11:40:21.728Z,10.50
2023-03-21T11:42:56.960Z,10.70
2023-03-21T11:45:38.594Z,10.70
2023-03-21T11:48:14.567Z,10.60
2023-03-21T11:50:50.539Z,10.50
2023-03-21T11:53:52.377Z,10.40
2023-03-21T11:56:45.775Z,10.40
2023-03-21T11:59:42.873Z,10.50
2023-03-21T12:02:55.816Z,10.50
2023-03-21T12:05:37.352Z,10.60
2023-03-21T12:08:13.587Z,10.60
2023-03-21T12:11:03.202Z,10.60
2023-03-21T12:13:54.479Z,10.70
2023-03-21T12:16:44.261Z,10.70
2023-03-21T12:19:54.736Z,10.90
2023-03-21T12:22:51.428Z,10.90
2023-03-21T12:25:46.831Z,11.00
2023-03-21T12:28:56.910Z,11.00
2023-03-21T12:31:53.373Z,11.10
2023-03-21T12:34:41.403Z,11.20
2023-03-21T12:37:38.169Z,11.20
2023-03-21T12:40:34.575Z,11.30
2023-03-21T12:43:37.631Z,11.30
2023-03-21T12:46:17.014Z,11.30
2023-03-21T12:49:07.382Z,11.20
2023-03-21T12:51:44.906Z,11.20
2023-03-21T12:54:38.941Z,11.20
2023-03-21T12:57:21.291Z,11.20
2023-03-21T13:00:19.475Z,11.30
2023-03-21T13:02:57.576Z,11.40
2023-03-21T13:05:44.947Z,11.50
2023-03-21T13:08:38.795Z,11.60
2023-03-21T13:11:16.238Z,11.70
2023-03-21T13:13:48.879Z,11.90
2023-03-21T13:16:37.236Z,11.90
2023-03-21T13:19:20.918Z,11.90
2023-03-21T13:22:24.830Z,12.00
2023-03-21T13:25:02.782Z,12.00
2023-03-21T13:27:39.132Z,12.10
2023-03-21T13:30:14.663Z,12.10
2023-03-21T13:32:50.286Z,12.20
2023-03-21T13:35:38.867Z,12.30
2023-03-21T13:38:32.978Z,12.30
2023-03-21T13:41:20.418Z,12.30
2023-03-21T13:44:02.251Z,12.40
2023-03-21T13:46:53.691Z,12.40
2023-03-21T13:49:34.048Z,12.50
2023-03-21T13:52:09.490Z,12.60
2023-03-21T13:54:51.076Z,12.60
2023-03-21T13:57:30.444Z,12.60
2023-03-21T14:00:20.309Z,12.60
2023-03-21T14:03:17.375Z,12.70
2023-03-21T14:05:51.468Z,12.70
2023-03-21T14:08:36.842Z,12.70
2023-03-21T14:11:17.051Z,12.70
2023-03-21T14:13:51.781Z,12.80
2023-03-21T14:16:28.488Z,12.80
2023-03-21T14:19:04.608Z,12.80
2023-03-21T14:21:37.554Z,12.80
2023-03-21T14:24:14.477Z,12.80
2023-03-21T14:26:53.578Z,12.80
2023-03-21T14:29:31.991Z,12.70
2023-03-21T14:32:05.848Z,12.70
2023-03-21T14:34:38.935Z,12.70
2023-03-21T14:37:11.914Z,12.70
2023-03-21T14:39:44.591Z,12.70
2023-03-21T14:42:17.270Z,12.60
2023-03-21T14:44:55.252Z,12.60
2023-03-21T14:47:31.937Z,12.60
2023-03-21T14:50:06.947Z,12.60
2023-03-21T14:53:06.498Z,12.60
2023-03-21T14:56:25.497Z,12.60
2023-03-21T14:58:58.264Z,12.60
2023-03-21T15:01:34.646Z,12.70
2023-03-21T15:15:01.379Z,12.50
2023-03-21T15:17:34.244Z,12.60
2023-03-21T15:20:10.175Z,12.60
2023-03-21T15:22:47.699Z,12.60
2023-03-21T15:28:15.242Z,12.70
2023-03-21T15:30:53.302Z,12.70
2023-03-21T15:33:26.710Z,12.80
2023-03-21T15:36:01.614Z,12.80
2023-03-21T15:38:42.589Z,12.80
2023-03-21T15:41:21.387Z,12.80
2023-03-21T15:44:06.376Z,12.90
2023-03-21T15:46:49.002Z,12.80
2023-03-21T15:49:32.279Z,12.90
2023-03-21T15:52:16.725Z,12.90
2023-03-21T15:54:55.755Z,12.90
2023-03-21T15:57:33.991Z,12.80
2023-03-21T16:00:31.371Z,12.80
2023-03-21T16:03:18.767Z,12.80
2023-03-21T16:06:18.537Z,12.70
2023-03-21T16:09:13.917Z,12.80
2023-03-21T16:11:55.447Z,12.70
2023-03-21T16:14:28.226Z,12.70
2023-03-21T16:17:00.909Z,12.70
2023-03-21T16:19:34.393Z,12.60
2023-03-21T16:22:11.205Z,12.60
2023-03-21T16:24:43.867Z,12.60
2023-03-21T16:27:20.687Z,12.60
2023-03-21T16:29:54.075Z,12.50
2023-03-21T16:32:27.075Z,12.60
2023-03-21T16:35:01.177Z,12.70
2023-03-21T16:37:34.118Z,12.70
2023-03-21T16:40:29.822Z,12.70
2023-03-21T16:43:02.764Z,12.80
2023-03-21T16:45:35.959Z,12.80
2023-03-21T16:48:15.825Z,12.80
2023-03-21T16:50:48.943Z,12.70
2023-03-21T16:53:21.695Z,12.70
2023-03-21T16:55:54.552Z,12.70
2023-03-21T16:58:29.411Z,12.60
2023-03-21T17:01:02.869Z,12.60
2023-03-21T17:03:35.696Z,12.50
2023-03-21T17:06:14.094Z,12.50
2023-03-21T17:08:47.386Z,12.50
2023-03-21T17:11:22.770Z,12.40
2023-03-21T17:13:55.521Z,12.40
2023-03-21T17:16:28.615Z,12.40
2023-03-21T17:19:01.676Z,12.30
2023-03-21T17:21:34.380Z,12.30
2023-03-21T17:24:07.235Z,12.30
2023-03-21T17:26:40.127Z,12.30
2023-03-21T17:29:14.330Z,12.30
2023-03-21T17:31:48.491Z,12.30
2023-03-21T17:34:21.451Z,12.20
2023-03-21T17:36:54.438Z,12.20
2023-03-21T17:39:28.629Z,12.10
2023-03-21T17:42:01.482Z,12.10
2023-03-21T17:44:35.041Z,12.10
2023-03-21T17:47:10.980Z,12.10
2023-03-21T17:49:43.670Z,12.10
2023-03-21T17:52:16.521Z,12.00
2023-03-21T17:54:49.205Z,12.00
2023-03-21T17:57:22.002Z,12.00
2023-03-21T17:59:56.679Z,12.00
2023-03-21T18:02:29.478Z,11.90
2023-03-21T18:05:02.175Z,11.90
2023-03-21T18:08:07.847Z,11.80
2023-03-21T18:10:29.276Z,11.70
2023-03-21T18:13:02.268Z,11.60
2023-03-21T18:15:37.715Z,11.60
2023-03-21T18:18:11.995Z,11.50
2023-03-21T18:20:52.015Z,11.50
2023-03-21T18:23:25.603Z,11.40
2023-03-21T18:25:59.059Z,11.40
2023-03-21T18:28:31.937Z,11.30
2023-03-21T18:31:13.189Z,11.30
2023-03-21T18:33:49.249Z,11.30
2023-03-21T18:36:25.331Z,11.30
2023-03-21T18:38:58.958Z,11.30
2023-03-21T18:41:32.036Z,11.30
2023-03-21T18:44:13.010Z,11.30
2023-03-21T18:46:50.535Z,11.30
2023-03-21T18:52:17.250Z,11.20
2023-03-21T18:54:50.378Z,11.20
2023-03-21T18:57:39.361Z,11.20
2023-03-21T19:00:17.013Z,11.20
2023-03-21T19:02:52.459Z,11.20
2023-03-21T19:05:27.246Z,11.20
2023-03-21T19:07:59.959Z,11.20
2023-03-21T19:10:32.996Z,11.20
2023-03-21T19:13:10.807Z,11.20
2023-03-21T19:15:43.619Z,11.20
2023-03-21T19:18:41.463Z,11.20
2023-03-21T19:21:09.520Z,11.10
2023-03-21T19:24:16.436Z,11.10
2023-03-21T19:26:35.386Z,11.10
2023-03-21T19:29:08.362Z,11.00
2023-03-21T19:31:49.367Z,11.00
2023-03-21T19:34:22.050Z,11.10
2023-03-21T19:36:54.988Z,11.10
2023-03-21T19:39:27.822Z,11.10
2023-03-21T19:42:15.090Z,11.10
2023-03-21T19:44:48.839Z,11.00
2023-03-21T19:47:21.583Z,11.00
2023-03-21T19:50:40.860Z,11.00
2023-03-21T19:52:47.964Z,11.00
2023-03-21T19:55:20.763Z,11.00
2023-03-21T19:57:53.560Z,10.90
2023-03-21T20:00:26.448Z,10.90
2023-03-21T20:02:59.782Z,10.90
2023-03-21T20:05:32.544Z,10.90
2023-03-21T20:08:09.897Z,10.90
2023-03-21T20:10:46.250Z,10.90
2023-03-21T20:13:18.927Z,10.90
2023-03-21T20:15:55.439Z,10.90
2023-03-21T20:18:29.686Z,10.80
2023-03-21T20:21:02.505Z,10.80
2023-03-21T20:23:35.455Z,10.80
2023-03-21T20:26:13.310Z,10.70
2023-03-21T20:28:56.723Z,10.70
2023-03-21T20:31:40.217Z,10.70
2023-03-21T20:34:13.057Z,10.70
2023-03-21T20:36:46.219Z,10.70
2023-03-21T20:39:18.948Z,10.70
2023-03-21T20:41:54.662Z,10.70
2023-03-21T20:44:51.919Z,10.70
2023-03-21T20:47:20.790Z,10.70
2023-03-21T20:49:55.181Z,10.70
2023-03-21T20:53:01.222Z,10.70
2023-03-21T20:55:24.418Z,10.70
2023-03-21T20:57:57.327Z,10.60
2023-03-21T21:00:29.975Z,10.60
2023-03-21T21:03:03.797Z,10.60
2023-03-21T21:05:38.052Z,10.60
2023-03-21T21:08:10.867Z,10.60
2023-03-21T21:11:14.953Z,10.60
2023-03-21T21:13:37.982Z,10.60
2023-03-21T21:16:11.709Z,10.50
2023-03-21T21:18:45.055Z,10.50
2023-03-21T21:21:17.967Z,10.50
2023-03-21T21:23:51.083Z,10.50
2023-03-21T21:26:23.783Z,10.40
2023-03-21T21:28:58.663Z,10.40
2023-03-21T21:31:34.763Z,10.40
2023-03-21T21:34:07.662Z,10.40
2023-03-21T21:36:40.300Z,10.40
2023-03-21T21:39:15.585Z,10.30
2023-03-21T21:41:48.272Z,10.30
2023-03-21T21:44:21.216Z,10.30
2023-03-21T21:46:53.901Z,10.20
2023-03-21T21:49:28.086Z,10.10
2023-03-21T21:52:03.925Z,10.10
2023-03-21T21:54:36.900Z,10.00
2023-03-21T21:57:09.895Z,10.00
2023-03-21T21:59:42.681Z,10.00
2023-03-21T22:02:16.735Z,9.90
2023-03-21T22:04:51.265Z,9.90
2023-03-21T22:07:27.529Z,9.90
2023-03-21T22:10:00.519Z,9.90
2023-03-21T22:12:33.451Z,9.80
2023-03-21T22:15:10.782Z,9.80
2023-03-21T22:17:44.719Z,9.80
2023-03-21T22:20:19.614Z,9.70
2023-03-21T22:22:52.539Z,9.70
2023-03-21T22:25:25.688Z,9.60
2023-03-21T22:27:58.567Z,9.60
2023-03-21T22:30:31.558Z,9.50
2023-03-21T22:33:09.722Z,9.50
2023-03-21T22:35:42.866Z,9.50
2023-03-21T22:38:17.796Z,9.50
2023-03-21T22:41:00.165Z,9.40
2023-03-21T22:43:35.185Z,9.40
2023-03-21T22:46:08.088Z,9.40
2023-03-21T22:48:41.452Z,9.40
2023-03-21T22:51:14.140Z,9.30
2023-03-21T22:53:46.938Z,9.30
2023-03-21T22:56:19.616Z,9.40
2023-03-21T22:58:52.575Z,9.30
2023-03-21T23:01:25.563Z,9.30
2023-03-21T23:03:58.500Z,9.30
2023-03-21T23:06:31.888Z,9.20
2023-03-21T23:09:04.682Z,9.20
2023-03-21T23:11:37.890Z,9.20
2023-03-21T23:14:13.622Z,9.20
2023-03-21T23:16:47.250Z,9.20
2023-03-21T23:19:21.664Z,9.10
2023-03-21T23:21:55.663Z,9.10
2023-03-21T23:24:28.474Z,9.00
2023-03-21T23:27:02.048Z,9.00
2023-03-21T23:29:34.767Z,8.90
2023-03-21T23:32:07.398Z,8.90
2023-03-21T23:34:40.445Z,8.90
2023-03-21T23:37:13.173Z,8.80
2023-03-21T23:39:45.804Z,8.80
2023-03-21T23:42:18.849Z,8.80
2023-03-21T23:44:51.506Z,8.80
2023-03-21T23:47:24.302Z,8.80
2023-03-21T23:49:56.949Z,8.90
2023-03-21T23:52:29.804Z,8.90
2023-03-21T23:55:03.682Z,9.00
2023-03-21T23:57:38.202Z,9.10
